Time;durP1;ratioP1;P1;durP2;ratioP2;P2;SDS_P1;SDS_P2;PMS_P1;PMS_P2;Temp;Humidity;BMP_temperature;BMP_pressure;BME280_temperature;BME280_humidity;BME280_pressure;Samples;Min_cycle;Max_cycle;Signal;HPM_P1;HPM_P2
2023/04/09 00:01:37;;;;;;;19.42;12.98;;;;;;;9.38;79.35;102469.88;4945206;28;20652;-76
2023/04/09 00:04:02;;;;;;;20.23;13.38;;;;;;;9.37;79.58;102470.75;4938210;28;20168;-77
2023/04/09 00:06:28;;;;;;;20.45;13.52;;;;;;;9.36;79.47;102471.59;4942578;28;20528;-77
2023/04/09 00:08:53;;;;;;;21.17;13.65;;;;;;;9.36;79.50;102471.59;4948555;28;20027;-77
2023/04/09 00:11:18;;;;;;;22.65;13.43;;;;;;;9.33;79.84;102471.56;4945160;28;20039;-77
2023/04/09 00:13:44;;;;;;;21.77;14.20;;;;;;;9.34;79.67;102474.16;4948377;28;20027;-77
2023/04/09 00:16:09;;;;;;;20.83;13.50;;;;;;;9.32;79.54;102475.88;4946973;28;20501;-76
2023/04/09 00:18:35;;;;;;;20.75;14.00;;;;;;;9.30;79.47;102467.25;4941008;28;20155;-77
2023/04/09 00:21:00;;;;;;;23.35;14.70;;;;;;;9.27;79.46;102465.47;4942177;28;20489;-77
2023/04/09 00:23:25;;;;;;;23.20;13.82;;;;;;;9.26;79.63;102462.88;4944700;28;20035;-77
2023/04/09 00:25:51;;;;;;;24.63;14.77;;;;;;;9.24;79.49;102462.00;4942993;28;20058;-77
2023/04/09 00:28:16;;;;;;;22.15;14.25;;;;;;;9.23;79.68;102460.25;4946548;28;20134;-77
2023/04/09 00:30:41;;;;;;;21.63;13.98;;;;;;;9.22;79.62;102461.13;4943781;28;20035;-77
2023/04/09 00:33:06;;;;;;;23.90;14.40;;;;;;;9.21;79.77;102457.66;4944137;28;20414;-77
2023/04/09 00:35:32;;;;;;;21.95;14.15;;;;;;;9.21;79.78;102451.59;4941965;28;20035;-77
2023/04/09 00:37:57;;;;;;;22.42;13.73;;;;;;;9.19;79.84;102451.59;4943072;28;20359;-77
2023/04/09 00:40:22;;;;;;;23.00;14.45;;;;;;;9.18;79.72;102452.44;4947945;28;20106;-77
2023/04/09 00:42:47;;;;;;;21.77;14.00;;;;;;;9.18;80.00;102449.84;4947565;28;20031;-77
2023/04/09 00:45:13;;;;;;;22.73;14.93;;;;;;;9.16;80.17;102448.97;4942332;28;20035;-77
2023/04/09 00:47:38;;;;;;;23.42;14.85;;;;;;;9.16;79.83;102440.31;4947285;28;20121;-77
2023/04/09 00:50:04;;;;;;;24.15;14.38;;;;;;;9.14;80.13;102440.31;4942290;28;20038;-77
2023/04/09 00:52:29;;;;;;;23.55;14.48;;;;;;;9.14;80.14;102440.31;4944397;28;20023;-77
2023/04/09 00:54:55;;;;;;;24.17;15.40;;;;;;;9.13;80.40;102435.13;4943127;28;20028;-77
2023/04/09 00:57:21;;;;;;;24.80;15.35;;;;;;;9.14;80.35;102439.44;4942594;28;20031;-77
2023/04/09 00:59:46;;;;;;;23.98;14.90;;;;;;;9.12;80.49;102436.81;4946805;28;20034;-76
2023/04/09 01:02:11;;;;;;;23.05;15.32;;;;;;;9.12;80.44;102431.63;4949937;28;20126;-77
2023/04/09 01:04:40;;;;;;;23.23;14.75;;;;;;;9.12;80.65;102439.41;4946154;28;20576;-77
2023/04/09 01:07:22;;;;;;;23.17;14.73;;;;;;;9.13;80.60;102432.53;4946627;28;20036;-77
2023/04/09 01:10:20;;;;;;;22.35;13.27;;;;;;;9.12;80.33;102439.41;4947810;28;20045;-77
2023/04/09 01:13:07;;;;;;;23.85;13.70;;;;;;;9.12;80.53;102436.81;4954008;28;20023;-77
2023/04/09 01:15:36;;;;;;;22.80;14.38;;;;;;;9.12;81.03;102431.63;4944089;28;20031;-77
2023/04/09 01:18:33;;;;;;;24.23;14.32;;;;;;;9.12;80.71;102431.63;4946311;28;20035;-77
2023/04/09 01:21:04;;;;;;;23.17;14.32;;;;;;;9.11;81.33;102428.19;4920696;28;20502;-77
2023/04/09 01:23:35;;;;;;;21.17;13.07;;;;;;;9.11;81.14;102429.91;4949887;28;20249;-77
2023/04/09 01:26:15;;;;;;;23.48;13.80;;;;;;;9.10;81.30;102431.63;4947464;28;20098;-76
2023/04/09 01:28:46;;;;;;;23.50;13.48;;;;;;;9.10;81.25;102430.75;4948283;28;20036;-77
2023/04/09 01:31:14;;;;;;;22.43;14.30;;;;;;;9.07;81.42;102428.13;4941753;28;20046;-77
2023/04/09 01:33:40;;;;;;;22.60;13.77;;;;;;;9.06;82.06;102429.88;4949444;28;20309;-77
2023/04/09 01:36:07;;;;;;;24.08;14.68;;;;;;;9.05;81.71;102425.53;4945650;28;20035;-77
2023/04/09 01:38:35;;;;;;;23.48;14.65;;;;;;;9.06;81.92;102427.28;4944563;28;20386;-77
2023/04/09 01:41:01;;;;;;;23.25;14.80;;;;;;;9.06;81.66;102429.00;4944558;28;20467;-77
2023/04/09 01:43:27;;;;;;;25.23;15.25;;;;;;;9.06;81.85;102421.19;4946687;28;20134;-76
2023/04/09 01:45:53;;;;;;;24.13;15.13;;;;;;;9.06;81.94;102426.38;4949183;28;20699;-77
2023/04/09 01:48:19;;;;;;;26.75;15.35;;;;;;;9.06;81.77;102426.38;4948456;28;20034;-77
2023/04/09 01:50:45;;;;;;;26.38;15.90;;;;;;;9.05;82.05;102424.69;4944844;28;20031;-76
2023/04/09 01:53:11;;;;;;;25.33;15.05;;;;;;;9.03;81.69;102422.06;4946930;28;20042;-77
2023/04/09 01:55:36;;;;;;;27.48;16.25;;;;;;;9.02;81.81;102420.31;4947332;28;20035;-77
2023/04/09 01:58:01;;;;;;;24.25;14.75;;;;;;;9.01;82.12;102420.31;4946433;28;20096;-77
2023/04/09 02:00:34;;;;;;;28.58;16.65;;;;;;;8.99;81.94;102420.28;4943602;28;20035;-77
2023/04/09 02:03:23;;;;;;;26.83;15.57;;;;;;;9.00;81.60;102421.19;4942090;28;20067;-77
2023/04/09 02:06:04;;;;;;;25.80;15.63;;;;;;;8.97;81.85;102422.00;4946325;28;20034;-77
2023/04/09 02:08:30;;;;;;;27.85;16.35;;;;;;;8.95;81.95;102421.16;4946084;28;20489;-77
2023/04/09 02:10:57;;;;;;;30.45;17.55;;;;;;;8.92;82.16;102416.78;4944094;28;20031;-77
2023/04/09 02:13:25;;;;;;;30.77;17.17;;;;;;;8.91;82.22;102425.44;4941331;28;20086;-77
2023/04/09 02:15:51;;;;;;;30.00;17.23;;;;;;;8.90;82.05;102426.28;4949918;28;20053;-77
2023/04/09 02:18:24;;;;;;;31.13;17.08;;;;;;;8.89;82.24;102424.56;4946748;28;20031;-77
2023/04/09 02:20:49;;;;;;;30.75;17.02;;;;;;;8.85;82.12;102422.81;4944878;28;20027;-77
2023/04/09 02:23:15;;;;;;;30.85;18.38;;;;;;;8.84;82.17;102418.47;4942612;28;20046;-77
2023/04/09 02:25:40;;;;;;;30.27;17.48;;;;;;;8.84;82.41;102421.09;4945230;28;20023;-77
2023/04/09 02:28:06;;;;;;;29.77;17.38;;;;;;;8.83;82.44;102414.16;4947152;28;20041;-77
2023/04/09 02:30:31;;;;;;;31.80;18.02;;;;;;;8.83;82.48;102414.16;4942797;28;20387;-77
2023/04/09 02:32:56;;;;;;;30.85;17.67;;;;;;;8.82;82.40;102412.41;4944298;28;20061;-76
2023/04/09 02:35:22;;;;;;;30.95;16.98;;;;;;;8.82;82.24;102409.81;4942452;28;20031;-76
2023/04/09 02:37:47;;;;;;;30.38;18.02;;;;;;;8.82;82.53;102412.41;4944251;28;20035;-77
2023/04/09 02:40:12;;;;;;;32.85;18.27;;;;;;;8.81;82.16;102410.66;4945491;28;20110;-77
2023/04/09 02:42:37;;;;;;;32.45;18.83;;;;;;;8.80;82.32;102407.19;4948835;28;20038;-77
2023/04/09 02:45:03;;;;;;;31.38;18.17;;;;;;;8.80;82.68;102409.78;4951635;28;20031;-77
2023/04/09 02:47:29;;;;;;;30.85;17.50;;;;;;;8.80;82.55;102406.34;4954152;28;20370;-77
2023/04/09 02:49:54;;;;;;;30.83;18.65;;;;;;;8.79;82.67;102408.06;4952512;28;20079;-77
2023/04/09 02:52:23;;;;;;;33.97;18.83;;;;;;;8.79;82.96;102402.00;4953319;28;20035;-77
2023/04/09 02:54:48;;;;;;;31.63;18.02;;;;;;;8.80;82.90;102408.94;4953426;28;20026;-77
2023/04/09 02:57:13;;;;;;;33.58;18.00;;;;;;;8.80;82.83;102403.75;4953014;28;20078;-77
2023/04/09 02:59:39;;;;;;;31.95;18.05;;;;;;;8.81;82.78;102400.28;4952197;28;20027;-77
2023/04/09 03:02:04;;;;;;;30.80;17.95;;;;;;;8.81;83.03;102402.88;4951966;28;20026;-77
2023/04/09 03:04:30;;;;;;;30.58;18.50;;;;;;;8.80;82.87;102399.41;4953551;28;20040;-77
2023/04/09 03:06:55;;;;;;;30.08;16.85;;;;;;;8.78;82.84;102401.16;4951832;28;20062;-77
2023/04/09 03:09:20;;;;;;;31.27;17.88;;;;;;;8.76;82.63;102399.38;4948421;28;20102;-77
2023/04/09 03:11:46;;;;;;;31.08;17.73;;;;;;;8.75;82.66;102400.25;4953447;28;20057;-77
2023/04/09 03:14:11;;;;;;;31.63;18.20;;;;;;;8.74;83.11;102396.78;4949678;28;20439;-76
2023/04/09 03:16:36;;;;;;;33.28;17.95;;;;;;;8.74;82.60;102396.78;4945183;28;20075;-76
2023/04/09 03:19:01;;;;;;;32.58;17.75;;;;;;;8.72;82.58;102395.91;4948979;28;20038;-77
2023/04/09 03:21:27;;;;;;;30.27;17.27;;;;;;;8.70;82.33;102391.56;4940537;28;20100;-77
2023/04/09 03:23:52;;;;;;;32.15;18.08;;;;;;;8.68;81.84;102394.13;4943378;28;20034;-76
2023/04/09 03:26:17;;;;;;;31.38;17.70;;;;;;;8.65;81.14;102396.72;4943815;28;20550;-77
2023/04/09 03:28:43;;;;;;;30.52;17.42;;;;;;;8.61;80.83;102393.22;4944925;28;20027;-77
2023/04/09 03:31:08;;;;;;;32.60;17.33;;;;;;;8.58;81.17;102394.94;4942500;28;20028;-77
2023/04/09 03:33:34;;;;;;;31.23;16.95;;;;;;;8.55;80.91;102393.16;4942578;28;20035;-77
2023/04/09 03:35:59;;;;;;;31.42;17.10;;;;;;;8.53;81.27;102387.13;4941059;28;20046;-77
2023/04/09 03:38:24;;;;;;;30.83;17.15;;;;;;;8.53;81.38;102384.53;4943861;28;20176;-77
2023/04/09 03:40:50;;;;;;;31.13;17.50;;;;;;;8.52;81.14;102385.38;4944293;28;20098;-77
2023/04/09 03:43:15;;;;;;;32.70;17.30;;;;;;;8.48;81.54;102387.06;4945856;28;20042;-77
2023/04/09 03:45:40;;;;;;;27.58;15.75;;;;;;;8.49;81.48;102385.38;4950682;28;20069;-77
2023/04/09 03:48:05;;;;;;;30.15;16.88;;;;;;;8.48;81.43;102375.84;4953090;28;20051;-77
2023/04/09 03:50:36;;;;;;;29.42;17.23;;;;;;;8.46;81.17;102382.72;4949003;28;20113;-77
2023/04/09 03:53:02;;;;;;;31.35;16.55;;;;;;;8.46;81.37;102377.50;4949853;28;20035;-76
2023/04/09 03:55:27;;;;;;;28.90;16.13;;;;;;;8.44;80.94;102374.03;4953041;28;20441;-76
2023/04/09 03:57:52;;;;;;;29.70;16.58;;;;;;;8.42;81.13;102365.38;4949579;28;20031;-76
2023/04/09 04:00:17;;;;;;;28.88;16.33;;;;;;;8.39;81.15;102370.53;4951906;28;20427;-76
2023/04/09 04:02:43;;;;;;;29.13;16.42;;;;;;;8.38;81.34;102373.97;4952302;28;20039;-77
2023/04/09 04:05:08;;;;;;;28.73;15.73;;;;;;;8.36;81.20;102379.16;4952116;28;20038;-77
2023/04/09 04:07:33;;;;;;;28.30;15.88;;;;;;;8.30;81.31;102372.22;4953214;28;20023;-77
2023/04/09 04:09:59;;;;;;;29.85;16.05;;;;;;;8.29;81.24;102374.78;4952419;28;20037;-77
2023/04/09 04:12:24;;;;;;;27.00;15.02;;;;;;;8.27;81.09;102371.31;4953690;28;20439;-77
2023/04/09 04:14:49;;;;;;;29.55;15.68;;;;;;;8.23;81.20;102375.59;4952450;28;20029;-76
2023/04/09 04:17:15;;;;;;;29.85;15.93;;;;;;;8.20;81.04;102378.16;4941947;28;20062;-77
2023/04/09 04:19:40;;;;;;;28.30;16.38;;;;;;;8.16;80.90;102379.00;4943952;28;20111;-77
2023/04/09 04:22:05;;;;;;;28.48;15.77;;;;;;;8.09;81.12;102377.19;4943544;28;20436;-77
2023/04/09 04:24:30;;;;;;;29.27;15.77;;;;;;;8.01;80.78;102378.00;4943456;28;20044;-77
2023/04/09 04:26:56;;;;;;;27.92;16.40;;;;;;;7.93;80.66;102379.63;4940860;28;20051;-77
2023/04/09 04:29:21;;;;;;;29.10;16.02;;;;;;;7.84;80.76;102379.56;4945276;28;20038;-77
2023/04/09 04:31:46;;;;;;;29.67;16.42;;;;;;;7.75;80.74;102376.00;4945140;28;20081;-77
2023/04/09 04:34:11;;;;;;;26.92;15.35;;;;;;;7.68;80.57;102381.97;4942430;28;20555;-77
2023/04/09 04:36:37;;;;;;;26.08;14.75;;;;;;;7.62;80.60;102381.00;4944028;28;20038;-76
2023/04/09 04:39:02;;;;;;;28.48;15.25;;;;;;;7.54;80.62;102378.34;4946141;28;20035;-76
2023/04/09 04:41:28;;;;;;;26.70;14.65;;;;;;;7.44;80.83;102378.25;4946478;28;20027;-77
2023/04/09 04:43:53;;;;;;;26.88;14.25;;;;;;;7.38;80.77;102382.47;4953321;28;20481;-76
2023/04/09 04:46:19;;;;;;;27.10;14.70;;;;;;;7.30;80.86;102384.97;4946178;28;20028;-76
2023/04/09 04:48:44;;;;;;;28.05;15.18;;;;;;;7.23;80.82;102372.78;4944143;28;20475;-76
2023/04/09 04:51:09;;;;;;;27.98;15.18;;;;;;;7.16;80.79;102377.03;4946384;28;20367;-76
2023/04/09 04:53:35;;;;;;;25.33;13.88;;;;;;;7.11;81.10;102384.72;4949512;28;20019;-77
2023/04/09 04:56:00;;;;;;;28.13;14.38;;;;;;;7.06;81.08;102381.19;4948099;28;20378;-77
2023/04/09 04:58:25;;;;;;;25.83;13.90;;;;;;;7.01;81.17;102376.81;4943433;28;20111;-77
2023/04/09 05:00:51;;;;;;;25.67;14.18;;;;;;;6.93;81.08;102385.31;4945820;28;20054;-77
2023/04/09 05:03:16;;;;;;;28.58;14.25;;;;;;;6.89;81.49;102382.69;4945901;28;20031;-76
2023/04/09 05:05:41;;;;;;;26.80;14.13;;;;;;;6.84;81.83;102380.03;4946653;28;20030;-76
2023/04/09 05:08:07;;;;;;;28.25;14.57;;;;;;;6.81;81.93;102382.56;4948054;28;20024;-76
2023/04/09 05:10:32;;;;;;;27.80;14.90;;;;;;;6.77;81.72;102384.25;4949033;28;20057;-76
2023/04/09 05:12:57;;;;;;;26.98;13.95;;;;;;;6.74;82.20;102384.19;4955434;28;20113;-76
2023/04/09 05:15:22;;;;;;;26.65;14.35;;;;;;;6.70;81.94;102376.38;4953632;28;20027;-77
2023/04/09 05:17:48;;;;;;;24.67;13.30;;;;;;;6.65;82.01;102382.34;4946794;28;20117;-76
2023/04/09 05:20:13;;;;;;;23.92;13.77;;;;;;;6.64;81.97;102382.31;4944369;28;20027;-77
2023/04/09 05:22:39;;;;;;;27.13;13.95;;;;;;;6.63;82.33;102380.59;4944954;28;20063;-77
2023/04/09 05:25:04;;;;;;;26.08;13.93;;;;;;;6.62;82.47;102378.84;4944623;28;20030;-77
2023/04/09 05:27:30;;;;;;;26.60;14.65;;;;;;;6.58;82.63;102377.91;4944415;28;20110;-77
2023/04/09 05:29:55;;;;;;;27.65;14.75;;;;;;;6.55;82.51;102377.88;4947265;28;20483;-76
2023/04/09 05:32:20;;;;;;;25.48;14.07;;;;;;;6.51;82.81;102384.69;4952891;28;20030;-77
2023/04/09 05:34:46;;;;;;;26.23;14.30;;;;;;;6.50;82.81;102382.94;4956336;28;20383;-77
2023/04/09 05:37:11;;;;;;;26.00;13.80;;;;;;;6.51;82.55;102386.41;4956286;28;20019;-76
2023/04/09 05:39:36;;;;;;;26.50;14.40;;;;;;;6.50;82.85;102390.72;4955833;28;20042;-76
2023/04/09 05:42:02;;;;;;;27.45;14.13;;;;;;;6.50;82.85;102385.53;4956344;28;20027;-77
2023/04/09 05:44:27;;;;;;;27.70;14.35;;;;;;;6.51;83.05;102381.25;4956038;28;20031;-76
2023/04/09 05:46:52;;;;;;;26.98;14.38;;;;;;;6.51;83.17;102384.69;4954527;28;20035;-76
2023/04/09 05:49:17;;;;;;;26.88;14.30;;;;;;;6.52;82.94;102383.00;4953894;28;20151;-76
2023/04/09 05:51:43;;;;;;;29.15;14.48;;;;;;;6.54;82.93;102376.13;4956299;28;20027;-76
2023/04/09 05:54:08;;;;;;;25.88;14.43;;;;;;;6.55;83.01;102387.34;4955340;28;20034;-76
2023/04/09 05:56:34;;;;;;;27.48;14.98;;;;;;;6.57;83.30;102385.66;4954083;28;20031;-76
2023/04/09 05:58:59;;;;;;;24.60;14.18;;;;;;;6.58;83.24;102377.91;4956043;28;20023;-76
2023/04/09 06:01:24;;;;;;;28.55;15.73;;;;;;;6.61;83.63;102385.72;4947615;28;20046;-76
2023/04/09 06:03:50;;;;;;;27.48;14.75;;;;;;;6.64;83.52;102382.31;4945074;28;20114;-77
2023/04/09 06:06:15;;;;;;;27.00;14.48;;;;;;;6.65;83.43;102384.06;4942622;28;20032;-77
2023/04/09 06:08:40;;;;;;;28.50;15.00;;;;;;;6.65;83.66;102387.50;4941944;28;20386;-77
2023/04/09 06:11:10;;;;;;;28.27;14.48;;;;;;;6.69;83.72;102385.81;4944215;28;20054;-77
2023/04/09 06:13:35;;;;;;;26.45;14.73;;;;;;;6.72;83.74;102385.03;4943850;28;20035;-76
2023/04/09 06:16:04;;;;;;;29.17;14.68;;;;;;;6.72;83.78;102385.88;4948291;28;20031;-77
2023/04/09 06:18:29;;;;;;;27.13;14.77;;;;;;;6.72;84.23;102385.88;4941625;28;20176;-77
2023/04/09 06:21:02;;;;;;;28.67;14.75;;;;;;;6.76;83.95;102386.78;4944549;28;20122;-77
2023/04/09 06:23:27;;;;;;;27.90;14.55;;;;;;;6.77;83.84;102386.84;4944970;28;22042;-76
2023/04/09 06:25:52;;;;;;;27.80;15.25;;;;;;;6.81;83.72;102388.63;4944619;28;20130;-76
2023/04/09 06:28:17;;;;;;;27.60;14.48;;;;;;;6.83;83.63;102389.50;4941996;28;20059;-76
2023/04/09 06:30:43;;;;;;;27.25;15.43;;;;;;;6.84;83.65;102401.59;4944904;28;20031;-76
2023/04/09 06:33:08;;;;;;;29.30;15.73;;;;;;;6.86;83.77;102403.31;4945429;28;20407;-76
2023/04/09 06:35:33;;;;;;;29.73;15.73;;;;;;;6.89;83.96;102405.97;4940061;28;20030;-76
2023/04/09 06:37:58;;;;;;;27.55;15.65;;;;;;;6.91;84.09;102407.75;4943098;28;20400;-75
2023/04/09 06:40:24;;;;;;;30.02;15.80;;;;;;;6.96;83.90;102405.22;4941718;28;20031;-76
2023/04/09 06:42:49;;;;;;;27.77;15.88;;;;;;;6.99;84.47;102406.13;4936951;28;20435;-77
2023/04/09 06:45:14;;;;;;;28.38;15.60;;;;;;;7.04;84.50;102406.19;4947796;28;20123;-76
2023/04/09 06:47:39;;;;;;;29.25;15.80;;;;;;;7.09;83.95;102412.31;4946867;28;20034;-76
2023/04/09 06:50:05;;;;;;;27.23;15.05;;;;;;;7.11;84.40;102402.84;4950702;28;20079;-77
2023/04/09 06:52:30;;;;;;;29.83;16.13;;;;;;;7.15;84.07;102411.50;4952075;28;20351;-76
2023/04/09 06:54:56;;;;;;;28.70;15.90;;;;;;;7.18;84.25;102402.91;4953087;28;20035;-76
2023/04/09 06:57:21;;;;;;;30.40;16.25;;;;;;;7.21;84.57;102409.03;4949850;28;20030;-77
2023/04/09 06:59:46;;;;;;;29.60;16.17;;;;;;;7.24;83.66;102406.47;4951167;28;20106;-77
2023/04/09 07:02:12;;;;;;;29.08;16.38;;;;;;;7.27;84.48;102408.22;4947795;28;20038;-76
2023/04/09 07:04:37;;;;;;;29.35;16.63;;;;;;;7.29;83.78;102409.13;4951043;28;20508;-76
2023/04/09 07:07:02;;;;;;;28.48;15.85;;;;;;;7.30;83.99;102418.63;4947749;28;20027;-76
2023/04/09 07:09:27;;;;;;;29.35;16.55;;;;;;;7.33;83.27;102423.84;4952913;28;20475;-77
2023/04/09 07:11:53;;;;;;;30.05;16.98;;;;;;;7.32;83.40;102422.13;4954009;28;20127;-76
2023/04/09 07:14:18;;;;;;;29.23;16.65;;;;;;;7.33;83.70;102421.25;4954517;28;20027;-76
2023/04/09 07:16:45;;;;;;;28.70;15.43;;;;;;;7.37;83.64;102420.44;4951260;28;20031;-76
2023/04/09 07:19:10;;;;;;;29.42;16.63;;;;;;;7.37;83.52;102417.00;4952536;28;20019;-76
2023/04/09 07:21:36;;;;;;;29.63;16.50;;;;;;;7.40;83.67;102423.06;4950964;28;20106;-76
2023/04/09 07:24:01;;;;;;;30.95;17.02;;;;;;;7.44;83.67;102422.25;4948012;28;20058;-76
2023/04/09 07:26:28;;;;;;;29.48;16.58;;;;;;;7.51;83.71;102420.63;4952683;28;20094;-77
2023/04/09 07:28:53;;;;;;;30.52;16.40;;;;;;;7.61;84.66;102419.00;4950168;28;20086;-77
2023/04/09 07:31:18;;;;;;;29.58;16.17;;;;;;;7.69;83.66;102421.69;4951114;28;20027;-77
2023/04/09 07:33:43;;;;;;;27.85;16.58;;;;;;;7.77;83.55;102422.63;4951847;28;20070;-77
2023/04/09 07:36:09;;;;;;;26.98;15.70;;;;;;;7.86;83.07;102421.88;4952053;28;20422;-76
2023/04/09 07:38:34;;;;;;;29.83;16.70;;;;;;;7.96;83.06;102423.72;4953082;28;20023;-76
2023/04/09 07:41:00;;;;;;;33.42;17.02;;;;;;;8.07;82.86;102421.25;4953282;28;20442;-76
2023/04/09 07:43:25;;;;;;;30.80;16.73;;;;;;;8.17;82.60;102417.88;4952619;28;20034;-77
2023/04/09 07:45:50;;;;;;;28.17;17.20;;;;;;;8.23;82.67;102422.25;4954221;28;20081;-76
2023/04/09 07:48:16;;;;;;;31.40;17.10;;;;;;;8.27;82.30;102418.00;4950514;28;21350;-77
2023/04/09 07:50:42;;;;;;;29.63;16.88;;;;;;;8.27;82.92;102416.25;4953527;28;20039;-76
2023/04/09 07:53:07;;;;;;;29.08;17.25;;;;;;;8.28;83.24;102420.59;4952592;28;20136;-76
2023/04/09 07:55:32;;;;;;;30.48;17.48;;;;;;;8.31;82.35;102419.75;4951309;28;20027;-76
2023/04/09 07:57:58;;;;;;;30.40;18.15;;;;;;;8.34;82.59;102419.78;4951673;28;20394;-76
2023/04/09 08:00:23;;;;;;;29.70;17.17;;;;;;;8.45;82.47;102418.16;4952111;28;20031;-77
2023/04/09 08:02:49;;;;;;;30.08;17.83;;;;;;;8.54;82.52;102412.19;4949539;28;20031;-76
2023/04/09 08:05:14;;;;;;;31.33;18.58;;;;;;;8.63;82.57;102412.28;4947152;28;20035;-76
2023/04/09 08:07:40;;;;;;;29.98;19.02;;;;;;;8.76;82.24;102409.75;4948487;28;20113;-77
2023/04/09 08:10:05;;;;;;;28.95;18.20;;;;;;;8.89;81.74;102414.16;4949696;28;20027;-77
2023/04/09 08:12:31;;;;;;;33.38;18.77;;;;;;;9.04;82.21;102415.16;4947318;28;20038;-76
2023/04/09 08:14:56;;;;;;;32.38;20.33;;;;;;;9.15;81.06;102415.19;4953041;28;20035;-77
2023/04/09 08:17:22;;;;;;;31.77;18.85;;;;;;;9.21;81.20;102416.13;4949269;28;20467;-76
2023/04/09 08:19:48;;;;;;;31.88;19.50;;;;;;;9.27;80.00;102417.88;4943291;28;20039;-77
2023/04/09 08:22:14;;;;;;;32.25;20.15;;;;;;;9.30;81.14;102411.81;4951218;28;20030;-76
2023/04/09 08:24:42;;;;;;;31.75;19.40;;;;;;;9.37;80.86;102416.19;4945859;28;20035;-76
2023/04/09 08:27:07;;;;;;;31.70;19.15;;;;;;;9.45;80.84;102411.03;4948567;28;20051;-76
2023/04/09 08:29:33;;;;;;;32.53;19.38;;;;;;;9.54;81.01;102411.06;4947250;28;20030;-76
2023/04/09 08:31:59;;;;;;;31.60;19.38;;;;;;;9.59;80.06;102411.06;4951817;28;20609;-76
2023/04/09 08:34:24;;;;;;;30.58;18.50;;;;;;;9.60;80.46;102412.81;4946847;28;20475;-76
2023/04/09 08:36:49;;;;;;;33.42;20.13;;;;;;;9.63;81.12;102413.72;4947389;28;20062;-76
2023/04/09 08:39:18;;;;;;;29.67;18.70;;;;;;;9.67;80.11;102405.03;4960153;28;20054;-76
2023/04/09 08:41:44;;;;;;;33.90;20.13;;;;;;;9.72;81.33;102410.28;4949034;28;20035;-77
2023/04/09 08:44:10;;;;;;;33.42;19.38;;;;;;;9.77;80.95;102405.94;4948577;28;20094;-76
2023/04/09 08:46:36;;;;;;;28.27;17.88;;;;;;;9.83;79.82;102400.75;4944614;28;20035;-77
2023/04/09 08:49:01;;;;;;;31.77;19.63;;;;;;;9.87;80.23;102407.72;4948867;28;20071;-77
2023/04/09 08:51:27;;;;;;;31.42;19.20;;;;;;;9.93;80.83;102400.78;4948120;28;20106;-76
2023/04/09 08:53:58;;;;;;;31.02;19.50;;;;;;;9.96;80.57;102405.97;4947590;28;20051;-76
2023/04/09 08:56:23;;;;;;;31.75;19.40;;;;;;;9.98;79.67;102399.94;4947785;28;20031;-76
2023/04/09 08:58:49;;;;;;;30.65;19.20;;;;;;;9.97;79.12;102398.22;4952909;28;20110;-76
2023/04/09 09:01:25;;;;;;;30.70;18.58;;;;;;;10.00;79.85;102392.13;4953700;28;20126;-76
2023/04/09 09:04:00;;;;;;;32.03;19.08;;;;;;;10.05;80.71;102394.72;4946901;28;20107;-76
2023/04/09 09:06:28;;;;;;;29.65;18.92;;;;;;;10.09;79.70;102397.34;4951162;28;20441;-77
2023/04/09 09:09:05;;;;;;;32.65;19.80;;;;;;;10.13;79.20;102399.06;4944531;28;20035;-76
2023/04/09 09:11:35;;;;;;;29.27;18.27;;;;;;;10.16;79.30;102399.09;4940828;28;20670;-76
2023/04/09 09:14:11;;;;;;;31.88;19.15;;;;;;;10.23;79.36;102396.50;4943089;28;20035;-76
2023/04/09 09:16:41;;;;;;;29.35;18.30;;;;;;;10.23;78.84;102393.91;4940583;28;20035;-76
2023/04/09 09:19:08;;;;;;;30.02;18.95;;;;;;;10.26;78.43;102401.69;4943649;28;20097;-76
2023/04/09 09:21:35;;;;;;;28.73;18.42;;;;;;;10.28;78.86;102402.56;4947651;28;20405;-75
2023/04/09 09:24:01;;;;;;;29.33;17.52;;;;;;;10.29;77.28;102396.50;4947523;28;20068;-75
2023/04/09 09:26:28;;;;;;;30.55;18.30;;;;;;;10.32;77.58;102393.91;4935665;28;20035;-76
2023/04/09 09:28:55;;;;;;;29.13;17.55;;;;;;;10.35;76.81;102393.91;4941205;28;20037;-76
2023/04/09 09:31:22;;;;;;;28.00;17.33;;;;;;;10.37;76.77;102391.28;4948508;28;20031;-76
2023/04/09 09:33:49;;;;;;;29.30;17.70;;;;;;;10.37;77.01;102386.09;4947331;28;20062;-75
2023/04/09 09:36:15;;;;;;;27.83;17.10;;;;;;;10.42;77.31;102387.00;4934064;29;21373;-76
2023/04/09 09:38:55;;;;;;;29.08;17.98;;;;;;;10.50;77.85;102382.66;4946746;28;20074;-76
2023/04/09 09:41:22;;;;;;;27.80;17.17;;;;;;;10.62;78.42;102373.97;4947275;28;20046;-75
2023/04/09 09:43:48;;;;;;;25.10;16.23;;;;;;;10.74;76.23;102380.88;4949267;28;20174;-75
2023/04/09 09:46:14;;;;;;;25.88;16.65;;;;;;;10.87;77.60;102379.13;4950175;28;20068;-76
2023/04/09 09:48:40;;;;;;;26.92;16.45;;;;;;;10.98;75.50;102379.13;4947458;28;20038;-76
2023/04/09 09:51:09;;;;;;;25.73;15.85;;;;;;;11.13;75.73;102372.97;4947448;28;20035;-76
2023/04/09 09:53:35;;;;;;;24.35;15.98;;;;;;;11.27;73.54;102379.03;4947609;28;20031;-76
2023/04/09 09:56:10;;;;;;;24.38;15.52;;;;;;;11.36;72.64;102365.94;4949683;28;20122;-75
2023/04/09 09:58:38;;;;;;;24.77;16.38;;;;;;;11.45;72.72;102358.94;4949747;28;20039;-76
2023/04/09 10:01:10;;;;;;;22.92;15.63;;;;;;;11.53;72.12;102355.44;4947612;28;20437;-76
2023/04/09 10:03:38;;;;;;;;;;;;;;;11.65;75.44;102353.66;4949545;28;20035;-76
2023/04/09 10:06:04;;;;;;;24.50;13.98;;;;;;;11.69;70.75;102353.59;4949146;28;20325;-76
2023/04/09 10:08:32;;;;;;;20.27;13.43;;;;;;;11.73;69.72;102353.59;4946891;28;20031;-77
2023/04/09 10:10:59;;;;;;;19.98;13.15;;;;;;;11.78;68.53;102351.84;4946182;28;20039;-76
2023/04/09 10:13:31;;;;;;;21.92;13.50;;;;;;;11.87;71.50;102354.38;4951139;28;20031;-76
2023/04/09 10:15:57;;;;;;;19.92;13.05;;;;;;;12.05;71.08;102347.31;4944830;28;20035;-76
2023/04/09 10:18:23;;;;;;;18.80;12.25;;;;;;;12.21;67.79;102346.31;4947840;28;20031;-75
2023/04/09 10:20:55;;;;;;;19.27;11.75;;;;;;;12.36;66.02;102337.50;4947191;28;20050;-77
2023/04/09 10:23:32;;;;;;;17.42;11.48;;;;;;;12.46;65.94;102346.13;4949938;28;20066;-77
2023/04/09 10:25:58;;;;;;;17.55;11.00;;;;;;;12.52;64.69;102343.44;4947010;28;20113;-77
2023/04/09 10:28:23;;;;;;;17.10;11.10;;;;;;;12.54;65.07;102341.66;4946441;28;20545;-77
2023/04/09 10:30:48;;;;;;;18.13;11.27;;;;;;;12.60;64.33;102339.00;4946724;28;20062;-77
2023/04/09 10:33:16;;;;;;;16.42;10.73;;;;;;;12.65;62.89;102338.06;4941939;28;20633;-77
2023/04/09 10:35:42;;;;;;;14.98;10.32;;;;;;;12.67;66.20;102338.91;4946583;28;20035;-77
2023/04/09 10:38:09;;;;;;;15.40;10.25;;;;;;;12.72;64.30;102334.53;4945427;28;20109;-77
2023/04/09 10:40:40;;;;;;;14.35;9.63;;;;;;;12.77;63.66;102330.13;4940036;28;20027;-76
2023/04/09 10:43:06;;;;;;;15.25;10.30;;;;;;;12.86;63.41;102327.41;4939910;28;20066;-77
2023/04/09 10:45:40;;;;;;;14.30;9.70;;;;;;;13.00;61.77;102321.16;4945644;28;20085;-77
2023/04/09 10:48:11;;;;;;;14.77;9.13;;;;;;;13.12;59.63;102313.19;4948889;28;20360;-75
2023/04/09 10:50:37;;;;;;;13.65;9.40;;;;;;;13.19;62.09;102317.41;4948047;28;20035;-77
2023/04/09 10:53:03;;;;;;;13.82;9.32;;;;;;;13.30;60.04;102322.50;4948737;28;20042;-77
2023/04/09 10:55:40;;;;;;;14.93;9.77;;;;;;;13.35;59.52;102320.72;4946705;28;20031;-77
2023/04/09 10:58:10;;;;;;;15.77;9.82;;;;;;;13.31;59.45;102316.41;4948011;28;20122;-76
2023/04/09 11:00:43;;;;;;;14.15;9.27;;;;;;;13.29;59.14;102317.31;4946132;28;20038;-76
2023/04/09 11:03:20;;;;;;;12.57;8.63;;;;;;;13.23;59.67;102306.94;4944446;28;20031;-76
2023/04/09 11:05:59;;;;;;;12.82;8.85;;;;;;;13.20;61.55;102300.00;4947405;28;20041;-76
2023/04/09 11:08:31;;;;;;;13.65;8.88;;;;;;;13.20;59.57;102298.25;4949224;28;20023;-76
2023/04/09 11:10:58;;;;;;;11.85;8.43;;;;;;;13.28;56.72;102305.97;4946008;28;20039;-75
2023/04/09 11:13:23;;;;;;;12.02;8.20;;;;;;;13.34;56.41;102299.78;4945828;28;20386;-75
2023/04/09 11:15:49;;;;;;;11.23;7.78;;;;;;;13.34;57.05;102300.69;4938841;28;20478;-76